This is the latest recevied weather packets stored in our database for station/object IQ8VX-3. If no packets are shown the sender has not sent any weather packets the latest 10 day(s).
| Time | Temp. | Humidity | Pressure | Rain* | Wind** | Luminosity | Snow |
|---|---|---|---|---|---|---|---|
| 1777559742 | 23.33° C | 49% | 1716.1 hPa | - | - | - | - |
| 1777558541 | 24.44° C | 46% | 1719.1 hPa | - | - | - | - |
| 1777557341 | 24.44° C | 48% | 1719.9 hPa | - | - | - | - |
| 1777556140 | 24.44° C | 47% | 1719.5 hPa | - | - | - | - |
| 1777554940 | 23.89° C | 50% | 1717.6 hPa | - | - | - | - |
| 1777553740 | 23.89° C | 52% | 1717.7 hPa | - | - | - | - |
| 1777552540 | 23.33° C | 56% | 1716.6 hPa | - | - | - | - |
| 1777551339 | 23.33° C | 58% | 1717 hPa | - | - | - | - |
| 1777550139 | 23.89° C | 57% | 1717.7 hPa | - | - | - | - |
| 1777548939 | 24.44° C | 58% | 1719.9 hPa | - | - | - | - |
| 1777547738 | 23.33° C | 64% | 1715.9 hPa | - | - | - | - |
| 1777546538 | 21.67° C | 62% | 1712.8 hPa | - | - | - | - |
| 1777545338 | 22.78° C | 64% | 1714.8 hPa | - | - | - | - |
| 1777544137 | 21.11° C | 72% | 1710.6 hPa | - | - | - | - |
| 1777542937 | 20° C | 74% | 1708.2 hPa | - | - | - | - |
| 1777541737 | 20° C | 76% | 1707.6 hPa | - | - | - | - |
| 1777540536 | 19.44° C | 76% | 1705.7 hPa | - | - | - | - |
| 1777539336 | 20° C | 75% | 1707.7 hPa | - | - | - | - |
| 1777538136 | 21.11° C | 74% | 1710.8 hPa | - | - | - | - |
| 1777536936 | 20.56° C | 73% | 1709.6 hPa | - | - | - | - |
| 1777535735 | 20° C | 74% | 1708 hPa | - | - | - | - |
| 1777534535 | 20.56° C | 72% | 1708.8 hPa | - | - | - | - |
| 1777533335 | 20° C | 73% | 1708.2 hPa | - | - | - | - |
| 1777532134 | 18.89° C | 70% | 1704.9 hPa | - | - | - | - |
| 1777530934 | 20° C | 67% | 1707.4 hPa | - | - | - | - |
* Rain since midnight (hover to see other rain measurements)
** Current wind speed in m/s (hover to see current wind gust speed)